createdAt,value
2019-03-09T00:00:43.497Z,6.08
2019-03-09T00:01:46.550Z,6.72
2019-03-09T00:02:47.739Z,6.08
2019-03-09T00:03:48.865Z,6.20
2019-03-09T00:04:50.109Z,5.15
2019-03-09T00:05:51.534Z,5.78
2019-03-09T00:06:52.726Z,6.28
2019-03-09T00:07:53.990Z,5.97
2019-03-09T00:08:55.458Z,5.28
2019-03-09T00:09:56.981Z,5.12
2019-03-09T00:10:58.946Z,5.95
2019-03-09T00:12:00.381Z,5.58
2019-03-09T00:13:01.771Z,5.30
2019-03-09T00:14:03.237Z,4.47
2019-03-09T00:15:06.230Z,4.40
2019-03-09T00:16:07.673Z,4.55
2019-03-09T00:17:09.113Z,3.80
2019-03-09T00:18:10.253Z,4.08
2019-03-09T00:19:11.888Z,3.70
2019-03-09T00:20:13.138Z,4.28
2019-03-09T00:21:15.366Z,4.12
2019-03-09T00:22:16.579Z,4.28
2019-03-09T00:23:34.817Z,4.67
2019-03-09T00:24:37.859Z,4.33
2019-03-09T00:25:43.601Z,3.95
2019-03-09T00:26:52.469Z,4.03
2019-03-09T00:27:58.646Z,3.98
2019-03-09T00:29:01.710Z,3.67
2019-03-09T00:30:07.057Z,4.60
2019-03-09T00:31:10.093Z,4.20
2019-03-09T00:32:13.415Z,4.12
2019-03-09T00:33:15.058Z,3.85
2019-03-09T00:34:16.206Z,4.00
2019-03-09T00:35:17.376Z,4.25
2019-03-09T00:36:18.600Z,4.15
2019-03-09T00:37:19.740Z,3.77
2019-03-09T00:38:21.125Z,3.37
2019-03-09T00:39:22.571Z,4.00
2019-03-09T00:40:23.970Z,3.98
2019-03-09T00:41:25.138Z,3.98
2019-03-09T00:42:26.264Z,3.83
2019-03-09T00:43:27.774Z,3.72
2019-03-09T00:44:28.933Z,3.55
2019-03-09T00:45:30.105Z,4.97
2019-03-09T00:46:31.338Z,3.70
2019-03-09T00:47:32.481Z,4.15
2019-03-09T00:48:33.620Z,4.13
2019-03-09T00:49:34.758Z,4.00
2019-03-09T00:50:35.911Z,4.55
2019-03-09T00:51:37.053Z,4.20
2019-03-09T00:52:38.197Z,4.22
2019-03-09T00:53:39.445Z,4.35
2019-03-09T00:54:40.583Z,3.90
2019-03-09T00:55:41.724Z,4.20
2019-03-09T00:56:42.869Z,4.78
2019-03-09T00:57:44.008Z,3.92
2019-03-09T00:58:45.141Z,4.15
2019-03-09T00:59:46.269Z,3.87
2019-03-09T01:00:47.431Z,4.33
2019-03-09T01:01:48.633Z,4.37
2019-03-09T01:02:51.188Z,5.35
2019-03-09T01:03:52.516Z,4.25
2019-03-09T01:04:53.644Z,4.30
2019-03-09T01:05:55.093Z,4.00
2019-03-09T01:06:56.228Z,3.45
2019-03-09T01:07:57.374Z,4.45
2019-03-09T01:08:58.802Z,4.17
2019-03-09T01:10:00.309Z,4.28
2019-03-09T01:11:01.493Z,4.22
2019-03-09T01:12:02.842Z,4.30
2019-03-09T01:13:04.046Z,4.08
2019-03-09T01:14:05.182Z,4.42
2019-03-09T01:15:07.122Z,4.25
2019-03-09T01:16:08.573Z,5.37
2019-03-09T01:17:09.722Z,4.92
2019-03-09T01:18:10.861Z,4.67
2019-03-09T01:19:12.003Z,4.58
2019-03-09T01:20:14.538Z,4.90
2019-03-09T01:21:15.695Z,4.62
2019-03-09T01:22:16.911Z,3.95
2019-03-09T01:23:18.448Z,4.25
2019-03-09T01:24:19.757Z,3.92
2019-03-09T01:25:20.964Z,4.42
2019-03-09T01:26:22.220Z,4.47
2019-03-09T01:27:23.359Z,4.22
2019-03-09T01:28:24.500Z,4.45
2019-03-09T01:29:25.651Z,4.17
2019-03-09T01:30:26.889Z,3.65
2019-03-09T01:31:28.040Z,3.83
2019-03-09T01:32:29.429Z,4.33
2019-03-09T01:33:30.918Z,3.70
2019-03-09T01:34:32.059Z,3.72
2019-03-09T01:35:33.206Z,4.47
2019-03-09T01:36:34.622Z,4.58
2019-03-09T01:37:35.859Z,4.53
2019-03-09T01:38:36.998Z,3.47
2019-03-09T01:39:38.542Z,3.40
2019-03-09T01:40:39.682Z,3.30
2019-03-09T01:41:40.825Z,3.70
2019-03-09T01:42:41.974Z,3.50
2019-03-09T01:43:43.118Z,4.67
2019-03-09T01:44:44.606Z,4.05
2019-03-09T01:45:45.744Z,3.67
2019-03-09T01:46:46.901Z,3.80
2019-03-09T01:47:48.041Z,4.10
2019-03-09T01:48:49.181Z,4.22
2019-03-09T01:49:50.681Z,4.25
2019-03-09T01:50:51.825Z,3.95
2019-03-09T01:51:52.978Z,4.55
2019-03-09T01:52:54.129Z,3.90
2019-03-09T01:53:55.260Z,4.72
2019-03-09T01:54:56.424Z,4.08
2019-03-09T01:55:58.304Z,4.78
2019-03-09T01:56:59.455Z,4.53
2019-03-09T01:58:00.596Z,4.72
2019-03-09T01:59:01.733Z,5.15
2019-03-09T02:00:17.333Z,4.22
2019-03-09T02:01:18.585Z,4.15
2019-03-09T02:02:19.717Z,4.53
2019-03-09T02:03:20.962Z,4.72
2019-03-09T02:04:22.107Z,4.28
2019-03-09T02:05:23.550Z,4.25
2019-03-09T02:06:24.988Z,4.75
2019-03-09T02:07:26.125Z,3.77
2019-03-09T02:08:27.363Z,4.12
2019-03-09T02:09:28.504Z,4.45
2019-03-09T02:10:29.648Z,3.70
2019-03-09T02:11:30.791Z,4.30
2019-03-09T02:12:40.885Z,3.80
2019-03-09T02:13:42.020Z,3.77
2019-03-09T02:14:43.156Z,4.17
2019-03-09T02:15:44.288Z,4.58
2019-03-09T02:16:45.433Z,3.85
2019-03-09T02:17:46.568Z,4.55
2019-03-09T02:18:47.711Z,4.62
2019-03-09T02:19:49.137Z,4.12
2019-03-09T02:20:50.273Z,4.55
2019-03-09T02:21:51.426Z,4.55
2019-03-09T02:22:52.565Z,4.65
2019-03-09T02:23:53.696Z,5.62
2019-03-09T02:24:54.828Z,4.30
2019-03-09T02:25:56.237Z,4.60
2019-03-09T02:26:57.412Z,4.83
2019-03-09T02:28:00.664Z,4.25
2019-03-09T02:29:02.098Z,4.85
2019-03-09T02:30:13.176Z,5.15
2019-03-09T02:31:14.316Z,4.95
2019-03-09T02:32:15.748Z,4.80
2019-03-09T02:33:17.181Z,5.03
2019-03-09T02:34:18.613Z,4.50
2019-03-09T02:35:20.058Z,5.42
2019-03-09T02:36:21.701Z,4.97
2019-03-09T02:37:22.866Z,5.87
2019-03-09T02:38:31.764Z,4.45
2019-03-09T02:39:37.702Z,4.17
2019-03-09T02:40:38.873Z,4.17
2019-03-09T02:41:40.084Z,5.00
2019-03-09T02:42:41.235Z,4.47
2019-03-09T02:43:42.364Z,4.20
2019-03-09T02:44:43.507Z,5.08
2019-03-09T02:45:44.640Z,5.12
2019-03-09T02:46:45.879Z,6.20
2019-03-09T02:47:47.272Z,4.78
2019-03-09T02:48:48.514Z,5.10
2019-03-09T02:49:49.898Z,6.03
2019-03-09T02:50:56.935Z,5.03
2019-03-09T02:51:58.162Z,5.10
2019-03-09T02:52:59.592Z,5.65
2019-03-09T02:54:01.043Z,5.60
2019-03-09T02:55:04.219Z,4.90
2019-03-09T02:56:05.358Z,5.25
2019-03-09T02:57:06.992Z,5.78
2019-03-09T02:58:08.126Z,5.70
2019-03-09T02:59:09.286Z,5.78
2019-03-09T03:00:16.004Z,5.53
2019-03-09T03:01:21.692Z,5.12
2019-03-09T03:02:25.062Z,6.28
2019-03-09T03:03:26.208Z,5.72
2019-03-09T03:04:27.338Z,5.85
2019-03-09T03:05:28.752Z,5.92
2019-03-09T03:06:29.882Z,5.50
2019-03-09T03:07:31.037Z,6.40
2019-03-09T03:08:32.173Z,5.97
2019-03-09T03:09:33.724Z,5.35
2019-03-09T03:10:34.951Z,5.80
2019-03-09T03:11:37.368Z,5.40
2019-03-09T03:12:38.789Z,4.47
2019-03-09T03:13:40.174Z,4.70
2019-03-09T03:14:41.513Z,5.28
2019-03-09T03:15:42.654Z,5.50
2019-03-09T03:16:43.816Z,4.80
2019-03-09T03:17:45.045Z,4.60
2019-03-09T03:18:46.454Z,4.90
2019-03-09T03:19:47.589Z,5.00
2019-03-09T03:20:49.022Z,5.20
2019-03-09T03:21:50.467Z,4.80
2019-03-09T03:22:51.901Z,4.87
2019-03-09T03:23:53.046Z,4.50
2019-03-09T03:24:54.512Z,4.60
2019-03-09T03:25:55.658Z,5.05
2019-03-09T03:26:56.790Z,4.90
2019-03-09T03:27:58.288Z,5.28
2019-03-09T03:28:59.424Z,5.42
2019-03-09T03:30:00.961Z,5.12
2019-03-09T03:31:02.098Z,5.65
2019-03-09T03:32:03.534Z,4.75
2019-03-09T03:33:04.681Z,5.33
2019-03-09T03:34:06.106Z,6.20
2019-03-09T03:35:07.371Z,5.40
2019-03-09T03:36:08.608Z,5.65
2019-03-09T03:37:09.830Z,5.95
2019-03-09T03:38:11.222Z,6.00
2019-03-09T03:39:12.362Z,5.75
2019-03-09T03:40:13.817Z,5.87
2019-03-09T03:41:14.949Z,5.97
2019-03-09T03:42:16.089Z,5.50
2019-03-09T03:43:17.535Z,6.12
2019-03-09T03:44:18.674Z,5.90
2019-03-09T03:45:19.817Z,5.95
2019-03-09T03:46:20.961Z,5.47
2019-03-09T03:47:22.105Z,5.25
2019-03-09T03:48:23.255Z,6.50
2019-03-09T03:49:25.252Z,6.40
2019-03-09T03:50:26.401Z,6.00
2019-03-09T03:51:27.525Z,6.12
2019-03-09T03:52:28.672Z,6.53
2019-03-09T03:53:29.832Z,6.30
2019-03-09T03:54:31.366Z,6.78
2019-03-09T03:55:32.595Z,6.95
2019-03-09T03:56:34.013Z,6.33
2019-03-09T03:57:35.199Z,7.50
2019-03-09T03:58:36.785Z,6.78
2019-03-09T03:59:37.930Z,7.85
2019-03-09T04:00:39.238Z,7.40
2019-03-09T04:01:40.380Z,7.70
2019-03-09T04:02:42.140Z,7.20
2019-03-09T04:03:43.635Z,7.62
2019-03-09T04:04:44.817Z,7.47
2019-03-09T04:05:46.358Z,7.08
2019-03-09T04:06:47.495Z,7.42
2019-03-09T04:07:48.928Z,6.85
2019-03-09T04:08:50.569Z,7.10
2019-03-09T04:09:51.805Z,7.58
2019-03-09T04:10:53.248Z,7.10
2019-03-09T04:11:54.396Z,6.53
2019-03-09T04:12:55.738Z,7.00
2019-03-09T04:13:57.091Z,7.08
2019-03-09T04:14:58.727Z,6.55
2019-03-09T04:15:59.857Z,7.42
2019-03-09T04:17:01.279Z,8.08
2019-03-09T04:18:02.514Z,7.87
2019-03-09T04:19:03.693Z,7.50
2019-03-09T04:20:07.041Z,6.70
2019-03-09T04:21:08.574Z,7.97
2019-03-09T04:22:10.006Z,7.05
2019-03-09T04:23:11.156Z,8.10
2019-03-09T04:24:12.298Z,7.65
2019-03-09T04:25:13.437Z,8.25
2019-03-09T04:26:14.583Z,8.70
2019-03-09T04:27:15.718Z,8.45
2019-03-09T04:28:16.890Z,8.45
2019-03-09T04:29:18.030Z,8.25
2019-03-09T04:30:19.170Z,8.70
2019-03-09T04:31:20.311Z,8.65
2019-03-09T04:32:21.753Z,8.65
2019-03-09T04:33:22.902Z,8.73
2019-03-09T04:34:24.045Z,8.33
2019-03-09T04:35:25.180Z,9.08
2019-03-09T04:36:26.593Z,9.00
2019-03-09T04:37:27.934Z,9.78
2019-03-09T04:38:29.065Z,10.28
2019-03-09T04:39:30.230Z,9.65
2019-03-09T04:40:31.369Z,10.78
2019-03-09T04:41:32.765Z,11.25
2019-03-09T04:42:33.925Z,11.22
2019-03-09T04:43:35.061Z,11.65
2019-03-09T04:44:36.221Z,11.93
2019-03-09T04:45:37.348Z,12.23
2019-03-09T04:46:38.858Z,13.15
2019-03-09T04:47:40.281Z,12.07
2019-03-09T04:48:41.720Z,13.10
2019-03-09T04:49:42.870Z,12.95
2019-03-09T04:50:44.025Z,14.18
2019-03-09T04:51:45.169Z,13.32
2019-03-09T04:52:46.300Z,13.00
2019-03-09T04:53:47.684Z,12.88
2019-03-09T04:54:49.130Z,12.88
2019-03-09T04:55:50.525Z,13.75
2019-03-09T04:56:51.653Z,14.30
2019-03-09T04:57:52.797Z,14.87
2019-03-09T04:58:54.280Z,13.75
2019-03-09T04:59:55.438Z,13.45
2019-03-09T05:00:56.863Z,12.90
2019-03-09T05:01:58.289Z,15.03
2019-03-09T05:02:59.737Z,13.38
2019-03-09T05:04:25.850Z,13.25
2019-03-09T05:05:26.996Z,13.95
2019-03-09T05:06:28.428Z,14.53
2019-03-09T05:07:29.866Z,15.95
2019-03-09T05:08:34.813Z,15.08
2019-03-09T05:09:54.921Z,14.40
2019-03-09T05:10:59.673Z,14.23
2019-03-09T05:12:01.121Z,15.90
2019-03-09T05:13:05.768Z,12.88
2019-03-09T05:14:06.920Z,14.98
2019-03-09T05:15:11.377Z,15.65
2019-03-09T05:16:12.615Z,15.93
2019-03-09T05:17:13.745Z,15.18
2019-03-09T05:18:14.889Z,14.65
2019-03-09T05:19:16.025Z,14.50
2019-03-09T05:20:17.179Z,14.85
2019-03-09T05:21:18.323Z,14.87
2019-03-09T05:22:19.468Z,14.85
2019-03-09T05:23:20.852Z,15.15
2019-03-09T05:24:21.984Z,15.58
2019-03-09T05:25:23.142Z,13.48
2019-03-09T05:26:24.557Z,12.30
2019-03-09T05:27:25.996Z,10.85
2019-03-09T05:28:27.139Z,9.85
2019-03-09T05:29:28.278Z,9.08
2019-03-09T05:30:38.325Z,8.73
2019-03-09T05:31:39.464Z,7.28
2019-03-09T05:32:40.602Z,7.17
2019-03-09T05:33:41.732Z,7.72
2019-03-09T05:34:42.876Z,7.25
2019-03-09T05:35:44.133Z,6.55
2019-03-09T05:36:45.264Z,5.50
2019-03-09T05:37:46.400Z,5.70
2019-03-09T05:38:47.582Z,5.87
2019-03-09T05:39:49.017Z,5.53
2019-03-09T05:40:50.427Z,5.30
2019-03-09T05:41:51.658Z,5.28
2019-03-09T05:42:53.045Z,5.47
2019-03-09T05:43:54.180Z,4.80
2019-03-09T05:44:55.316Z,5.00
2019-03-09T05:45:56.472Z,4.75
2019-03-09T05:46:58.412Z,4.67
2019-03-09T05:47:59.553Z,5.40
2019-03-09T05:49:00.954Z,5.47
2019-03-09T05:50:04.652Z,4.95
2019-03-09T05:51:05.961Z,5.62
2019-03-09T05:52:19.978Z,6.35
2019-03-09T05:53:21.119Z,5.75
2019-03-09T05:54:22.258Z,5.58
2019-03-09T05:55:23.392Z,5.85
2019-03-09T05:56:25.789Z,5.62
2019-03-09T05:57:27.217Z,5.78
2019-03-09T05:58:28.766Z,5.45
2019-03-09T05:59:30.209Z,5.60
2019-03-09T06:00:32.465Z,5.08
2019-03-09T06:01:33.621Z,5.40
2019-03-09T06:02:34.764Z,5.33
2019-03-09T06:03:35.900Z,5.05
2019-03-09T06:04:37.309Z,5.47
2019-03-09T06:05:40.484Z,6.05
2019-03-09T06:06:41.621Z,5.72
2019-03-09T06:07:42.756Z,5.47
2019-03-09T06:08:44.202Z,4.87
2019-03-09T06:09:45.341Z,5.15
2019-03-09T06:10:46.765Z,4.33
2019-03-09T06:11:47.922Z,4.60
2019-03-09T06:12:49.430Z,5.55
2019-03-09T06:13:50.653Z,5.08
2019-03-09T06:14:51.793Z,4.67
2019-03-09T06:15:53.339Z,5.30
2019-03-09T06:16:54.514Z,4.90
2019-03-09T06:17:56.027Z,4.90
2019-03-09T06:18:57.165Z,4.05
2019-03-09T06:19:58.306Z,4.80
2019-03-09T06:20:59.441Z,4.37
2019-03-09T06:22:00.595Z,4.45
2019-03-09T06:23:01.837Z,4.60
2019-03-09T06:24:03.349Z,4.33
2019-03-09T06:25:04.992Z,4.45
2019-03-09T06:26:06.129Z,4.45
2019-03-09T06:27:07.557Z,4.50
2019-03-09T06:28:08.998Z,5.58
2019-03-09T06:29:10.137Z,4.80
2019-03-09T06:30:12.378Z,4.10
2019-03-09T06:31:13.517Z,4.33
2019-03-09T06:32:33.845Z,5.00
2019-03-09T06:33:34.989Z,4.50
2019-03-09T06:34:36.478Z,4.87
2019-03-09T06:35:37.917Z,4.70
2019-03-09T06:36:46.017Z,4.85
2019-03-09T06:37:57.185Z,4.65
2019-03-09T06:39:01.124Z,4.72
2019-03-09T06:40:05.927Z,5.00
2019-03-09T06:41:11.132Z,4.37
2019-03-09T06:42:19.227Z,4.62
2019-03-09T06:43:20.669Z,5.00
2019-03-09T06:44:21.888Z,5.58
2019-03-09T06:45:23.048Z,4.53
2019-03-09T06:46:24.483Z,4.40
2019-03-09T06:47:25.636Z,4.33
2019-03-09T06:48:26.764Z,5.33
2019-03-09T06:49:28.209Z,4.50
2019-03-09T06:50:29.646Z,5.67
2019-03-09T06:51:30.789Z,4.80
2019-03-09T06:52:32.197Z,4.97
2019-03-09T06:53:33.638Z,4.33
2019-03-09T06:54:34.774Z,5.42
2019-03-09T06:55:35.922Z,5.47
2019-03-09T06:56:37.099Z,5.28
2019-03-09T06:57:38.237Z,5.78
2019-03-09T06:58:39.381Z,5.10
2019-03-09T06:59:40.844Z,4.92
2019-03-09T07:00:42.008Z,5.22
2019-03-09T07:01:43.241Z,5.10
2019-03-09T07:02:44.380Z,4.40
2019-03-09T07:03:45.512Z,5.37
2019-03-09T07:04:46.656Z,5.10
2019-03-09T07:05:47.796Z,5.05
2019-03-09T07:06:48.994Z,5.37
2019-03-09T07:07:50.125Z,5.15
2019-03-09T07:08:51.265Z,5.37
2019-03-09T07:09:52.685Z,6.12
2019-03-09T07:10:53.829Z,5.25
2019-03-09T07:11:55.010Z,5.40
2019-03-09T07:12:56.248Z,6.00
2019-03-09T07:14:17.921Z,6.08
2019-03-09T07:15:28.662Z,5.70
2019-03-09T07:16:29.804Z,6.17
2019-03-09T07:17:32.556Z,6.40
2019-03-09T07:18:34.808Z,5.78
2019-03-09T07:19:35.948Z,6.12
2019-03-09T07:20:37.161Z,5.47
2019-03-09T07:21:38.304Z,6.55
2019-03-09T07:22:39.460Z,5.40
2019-03-09T07:23:40.907Z,5.53
2019-03-09T07:24:42.040Z,6.25
2019-03-09T07:25:43.297Z,5.87
2019-03-09T07:26:44.431Z,5.25
2019-03-09T07:27:57.334Z,6.33
2019-03-09T07:28:58.749Z,5.75
2019-03-09T07:30:00.335Z,5.83
2019-03-09T07:31:01.834Z,5.70
2019-03-09T07:32:03.278Z,5.97
2019-03-09T07:33:04.539Z,5.95
2019-03-09T07:34:20.287Z,5.60
2019-03-09T07:35:21.726Z,6.28
2019-03-09T07:36:23.260Z,6.25
2019-03-09T07:37:24.660Z,5.80
2019-03-09T07:38:25.805Z,5.60
2019-03-09T07:39:26.951Z,5.78
2019-03-09T07:40:28.121Z,5.83
2019-03-09T07:41:29.649Z,5.92
2019-03-09T07:42:31.068Z,5.60
2019-03-09T07:43:32.213Z,5.67
2019-03-09T07:44:33.400Z,6.00
2019-03-09T07:45:34.541Z,6.35
2019-03-09T07:46:35.718Z,6.03
2019-03-09T07:47:37.472Z,6.15
2019-03-09T07:48:40.848Z,5.72
2019-03-09T07:49:41.965Z,6.70
2019-03-09T07:50:43.111Z,6.35
2019-03-09T07:51:45.815Z,6.45
2019-03-09T07:52:47.340Z,5.80
2019-03-09T07:53:48.479Z,6.85
2019-03-09T07:54:51.963Z,6.35
2019-03-09T07:55:52.969Z,7.33
2019-03-09T07:56:54.141Z,6.15
2019-03-09T07:57:59.935Z,6.90
2019-03-09T07:59:01.153Z,7.60
2019-03-09T08:00:05.293Z,7.05
2019-03-09T08:01:06.441Z,7.00
2019-03-09T08:02:07.578Z,6.65
2019-03-09T08:03:08.737Z,5.62
2019-03-09T08:04:09.881Z,6.22
2019-03-09T08:05:11.477Z,5.87
2019-03-09T08:06:12.625Z,6.00
2019-03-09T08:07:14.857Z,5.70
2019-03-09T08:08:16.126Z,5.75
2019-03-09T08:09:17.557Z,5.72
2019-03-09T08:10:23.697Z,5.80
2019-03-09T08:11:25.141Z,6.25
2019-03-09T08:12:26.685Z,5.78
2019-03-09T08:13:27.846Z,5.70
2019-03-09T08:14:29.015Z,5.12
2019-03-09T08:15:30.244Z,5.42
2019-03-09T08:16:35.776Z,5.10
2019-03-09T08:17:34.433Z,4.62
2019-03-09T08:18:35.586Z,5.50
2019-03-09T08:19:36.720Z,5.72
2019-03-09T08:20:38.204Z,4.72
2019-03-09T08:21:39.395Z,5.67
2019-03-09T08:22:40.698Z,6.22
2019-03-09T08:23:41.840Z,5.92
2019-03-09T08:24:43.011Z,5.47
2019-03-09T08:25:44.230Z,5.22
2019-03-09T08:26:45.377Z,4.60
2019-03-09T08:27:46.865Z,4.33
2019-03-09T08:28:48.283Z,4.80
2019-03-09T08:29:49.479Z,5.28
2019-03-09T08:30:50.704Z,4.50
2019-03-09T08:31:51.870Z,5.30
2019-03-09T08:32:53.204Z,4.47
2019-03-09T08:33:54.443Z,4.85
2019-03-09T08:34:55.582Z,4.83
2019-03-09T08:35:56.720Z,4.42
2019-03-09T08:36:57.874Z,4.03
2019-03-09T08:37:59.326Z,4.28
2019-03-09T08:39:00.594Z,4.95
2019-03-09T08:40:03.788Z,5.70
2019-03-09T08:41:05.006Z,4.65
2019-03-09T08:42:07.639Z,3.87
2019-03-09T08:43:10.007Z,3.45
2019-03-09T08:44:11.544Z,4.28
2019-03-09T08:45:14.922Z,3.87
2019-03-09T08:46:16.165Z,4.92
2019-03-09T08:47:17.310Z,5.10
2019-03-09T08:48:18.725Z,3.37
2019-03-09T08:49:19.883Z,4.75
2019-03-09T08:50:21.599Z,3.62
2019-03-09T08:51:22.848Z,4.37
2019-03-09T08:52:24.091Z,4.35
2019-03-09T08:53:25.225Z,4.22
2019-03-09T08:54:26.383Z,4.25
2019-03-09T08:55:27.906Z,3.95
2019-03-09T08:56:29.404Z,4.30
2019-03-09T08:57:30.629Z,4.60
2019-03-09T08:58:31.866Z,2.98
2019-03-09T08:59:33.341Z,5.08
2019-03-09T09:00:34.631Z,4.10
2019-03-09T09:01:36.114Z,4.37
2019-03-09T09:02:37.262Z,4.50
2019-03-09T09:03:38.411Z,4.00
2019-03-09T09:04:39.549Z,4.40
2019-03-09T09:05:40.699Z,3.92
2019-03-09T09:06:41.921Z,3.90
2019-03-09T09:07:43.068Z,4.20
2019-03-09T09:08:44.232Z,3.58
2019-03-09T09:09:45.375Z,4.50
2019-03-09T09:10:46.613Z,4.55
2019-03-09T09:11:47.766Z,4.33
2019-03-09T09:12:49.356Z,3.67
2019-03-09T09:13:50.535Z,3.50
2019-03-09T09:14:51.682Z,3.75
2019-03-09T09:15:52.828Z,3.80
2019-03-09T09:16:53.981Z,4.47
2019-03-09T09:17:55.490Z,4.25
2019-03-09T09:18:56.638Z,4.08
2019-03-09T09:19:57.796Z,4.17
2019-03-09T09:20:58.933Z,4.25
2019-03-09T09:22:00.409Z,4.20
2019-03-09T09:23:01.618Z,4.30
2019-03-09T09:24:03.064Z,4.15
2019-03-09T09:25:05.962Z,3.87
2019-03-09T09:26:07.109Z,4.00
2019-03-09T09:37:20.995Z,4.30
2019-03-09T09:50:36.354Z,5.83
2019-03-09T09:51:37.529Z,7.33
2019-03-09T09:52:39.009Z,7.65
2019-03-09T09:53:40.185Z,5.00
2019-03-09T09:54:41.330Z,6.95
2019-03-09T09:55:42.470Z,6.40
2019-03-09T09:57:44.629Z,6.60
2019-03-09T09:58:45.783Z,11.70
2019-03-09T09:59:47.293Z,6.87
2019-03-09T10:00:48.515Z,6.50
2019-03-09T10:01:49.652Z,6.25
2019-03-09T10:02:50.833Z,7.70
2019-03-09T10:03:52.052Z,5.10
2019-03-09T10:04:53.252Z,5.12
2019-03-09T10:05:54.765Z,5.70
2019-03-09T10:06:55.905Z,8.18
2019-03-09T10:07:57.047Z,17.27
2019-03-09T10:08:58.194Z,5.78
2019-03-09T10:20:15.037Z,7.25
2019-03-09T10:22:17.201Z,8.23
2019-03-09T10:23:18.465Z,9.48
2019-03-09T10:24:19.612Z,6.90
2019-03-09T10:25:21.212Z,8.83
2019-03-09T10:26:25.688Z,18.00
2019-03-09T10:27:25.696Z,6.33
2019-03-09T10:28:27.268Z,9.15
2019-03-09T10:29:28.443Z,5.62
2019-03-09T10:30:29.668Z,12.47
2019-03-09T10:31:31.189Z,9.90
2019-03-09T10:32:32.329Z,7.25
2019-03-09T10:33:33.859Z,5.72
2019-03-09T10:34:35.292Z,8.85
2019-03-09T10:35:36.485Z,9.53
2019-03-09T10:36:37.632Z,6.67
2019-03-09T10:37:38.769Z,6.33
2019-03-09T10:38:39.920Z,6.80
2019-03-09T10:39:41.113Z,6.25
2019-03-09T10:40:42.287Z,5.15
2019-03-09T10:41:43.678Z,13.85
2019-03-09T10:49:52.176Z,5.50
2019-03-09T10:50:53.329Z,6.45
2019-03-09T10:52:55.797Z,6.50
2019-03-09T10:53:56.933Z,6.92
2019-03-09T10:57:00.378Z,7.17
2019-03-09T10:58:01.523Z,7.20
2019-03-09T12:24:20.366Z,7.85
2019-03-09T12:25:21.505Z,8.28
2019-03-09T12:26:22.697Z,7.62
2019-03-09T12:27:23.859Z,8.35
2019-03-09T12:28:24.997Z,7.65
2019-03-09T12:29:26.425Z,8.15
2019-03-09T12:30:27.570Z,7.33
2019-03-09T12:31:28.761Z,8.23
2019-03-09T12:32:30.235Z,7.95
2019-03-09T12:33:31.676Z,7.65
2019-03-09T12:34:32.806Z,7.72
2019-03-09T12:35:34.045Z,7.78
2019-03-09T12:36:35.233Z,8.00
2019-03-09T12:37:36.391Z,8.85
2019-03-09T12:38:37.566Z,7.70
2019-03-09T12:39:38.701Z,9.28
2019-03-09T12:40:39.849Z,7.45
2019-03-09T12:41:41.349Z,8.15
2019-03-09T12:42:42.500Z,7.08
2019-03-09T12:43:44.546Z,6.90
2019-03-09T12:44:45.695Z,10.60
2019-03-09T12:45:46.842Z,7.50
2019-03-09T12:46:48.345Z,6.25
2019-03-09T12:47:49.502Z,8.03
2019-03-09T12:48:50.649Z,8.75
2019-03-09T12:49:51.798Z,7.00
2019-03-09T12:50:53.292Z,6.28
2019-03-09T12:51:54.431Z,6.92
2019-03-09T12:52:56.065Z,8.78
2019-03-09T12:53:57.470Z,7.65
2019-03-09T12:54:59.046Z,9.08
2019-03-09T12:56:00.197Z,7.25
2019-03-09T12:57:01.626Z,6.70
2019-03-09T12:58:02.785Z,5.95
2019-03-09T12:59:03.929Z,5.25
2019-03-09T13:00:11.673Z,5.08
2019-03-09T13:01:12.894Z,5.00
2019-03-09T13:02:14.358Z,4.85
2019-03-09T13:03:15.508Z,5.00
2019-03-09T13:04:16.645Z,4.53
2019-03-09T13:05:17.799Z,4.70
2019-03-09T13:06:18.941Z,4.35
2019-03-09T13:07:20.145Z,4.58
2019-03-09T13:08:23.479Z,4.62
2019-03-09T13:09:24.446Z,4.55
2019-03-09T13:10:25.594Z,4.10
2019-03-09T13:11:26.737Z,4.87
2019-03-09T13:12:27.908Z,4.53
2019-03-09T13:13:29.061Z,4.87
2019-03-09T13:14:30.313Z,5.37
2019-03-09T13:15:31.704Z,4.58
2019-03-09T13:16:33.185Z,5.08
2019-03-09T13:17:34.442Z,4.80
2019-03-09T13:18:35.655Z,4.72
2019-03-09T13:19:37.044Z,4.83
2019-03-09T13:20:38.186Z,4.65
2019-03-09T13:21:39.335Z,4.37
2019-03-09T13:22:40.494Z,4.83
2019-03-09T13:23:41.632Z,4.90
2019-03-09T13:24:42.781Z,5.15
2019-03-09T13:25:44.327Z,5.22
2019-03-09T13:26:45.466Z,5.40
2019-03-09T13:27:46.622Z,5.30
2019-03-09T13:28:48.032Z,5.15
2019-03-09T13:29:49.505Z,4.97
2019-03-09T13:30:51.097Z,5.28
2019-03-09T13:31:52.544Z,5.00
2019-03-09T13:32:53.688Z,4.53
2019-03-09T13:33:54.880Z,4.55
2019-03-09T13:34:56.029Z,5.20
2019-03-09T13:35:57.169Z,4.95
2019-03-09T13:36:58.314Z,5.03
2019-03-09T13:37:59.463Z,4.60
2019-03-09T13:39:00.593Z,5.12
2019-03-09T13:40:02.562Z,6.30
2019-03-09T13:41:03.967Z,6.30
2019-03-09T13:42:05.114Z,5.70
2019-03-09T13:43:06.251Z,6.83
2019-03-09T13:44:07.414Z,6.62
2019-03-09T13:45:13.817Z,6.85
2019-03-09T13:46:15.045Z,7.70
2019-03-09T13:47:16.181Z,7.45
2019-03-09T13:48:17.322Z,7.60
2019-03-09T13:49:18.762Z,7.90
2019-03-09T13:50:19.921Z,7.00
2019-03-09T13:51:21.379Z,7.80
2019-03-09T13:52:22.530Z,8.30
2019-03-09T13:53:23.700Z,8.93
2019-03-09T13:54:25.190Z,9.55
2019-03-09T13:55:26.337Z,9.18
2019-03-09T13:56:27.482Z,9.00
2019-03-09T13:57:28.959Z,10.35
2019-03-09T13:58:30.390Z,10.30
2019-03-09T13:59:31.542Z,10.65
2019-03-09T14:00:40.160Z,11.38
2019-03-09T14:01:37.813Z,11.97
2019-03-09T14:02:39.095Z,12.03
2019-03-09T14:03:40.395Z,11.90
2019-03-09T14:04:41.530Z,9.10
2019-03-09T14:05:42.722Z,9.23
2019-03-09T14:06:44.182Z,8.70
2019-03-09T14:07:45.337Z,10.28
2019-03-09T14:08:46.609Z,9.98
2019-03-09T14:09:47.953Z,10.28
2019-03-09T14:10:49.357Z,9.85
2019-03-09T14:11:50.553Z,12.65
2019-03-09T14:12:51.703Z,10.80
2019-03-09T14:13:53.104Z,11.10
2019-03-09T14:14:54.682Z,10.88
2019-03-09T14:15:56.175Z,10.98
2019-03-09T14:16:57.736Z,11.08
2019-03-09T14:17:59.289Z,10.48
2019-03-09T14:19:00.728Z,11.80
2019-03-09T14:20:03.313Z,11.88
2019-03-09T14:21:04.453Z,11.85
2019-03-09T14:22:05.695Z,11.40
2019-03-09T14:23:07.098Z,10.80
2019-03-09T14:24:08.341Z,10.45
2019-03-09T14:25:13.809Z,12.07
2019-03-09T14:26:15.064Z,11.28
2019-03-09T14:27:16.229Z,10.88
2019-03-09T14:28:17.376Z,10.70
2019-03-09T14:29:18.694Z,11.35
2019-03-09T14:30:19.902Z,10.15
2019-03-09T14:31:21.385Z,11.83
2019-03-09T14:32:22.525Z,8.25
2019-03-09T14:33:23.910Z,9.83
2019-03-09T14:34:25.100Z,8.90
2019-03-09T14:35:26.241Z,9.60
2019-03-09T14:36:27.385Z,11.38
2019-03-09T14:37:28.529Z,10.23
2019-03-09T14:38:29.769Z,10.35
2019-03-09T14:39:30.918Z,9.03
2019-03-09T14:40:32.094Z,9.63
2019-03-09T14:41:33.548Z,10.38
2019-03-09T14:42:34.738Z,13.00
2019-03-09T14:43:35.897Z,12.45
2019-03-09T14:44:37.029Z,13.18
2019-03-09T14:45:38.177Z,10.28
2019-03-09T14:46:39.318Z,12.15
2019-03-09T14:47:40.777Z,11.57
2019-03-09T14:48:41.923Z,12.70
2019-03-09T14:49:44.587Z,14.58
2019-03-09T14:50:45.716Z,13.50
2019-03-09T14:51:46.916Z,20.27
2019-03-09T14:52:48.309Z,12.20
2019-03-09T14:53:49.805Z,11.05
2019-03-09T14:54:51.242Z,10.08
2019-03-09T14:55:52.373Z,8.45
2019-03-09T14:56:53.545Z,7.28
2019-03-09T14:57:54.941Z,7.95
2019-03-09T14:58:56.100Z,7.97
2019-03-09T14:59:57.263Z,8.28
2019-03-09T15:00:58.746Z,8.85
2019-03-09T15:01:59.885Z,7.22
2019-03-09T15:03:01.322Z,7.42
2019-03-09T15:04:02.726Z,7.85
2019-03-09T15:05:04.876Z,5.97
2019-03-09T15:06:06.366Z,5.55
2019-03-09T15:07:07.505Z,5.10
2019-03-09T15:08:08.901Z,4.70
2019-03-09T15:09:10.141Z,4.65
2019-03-09T15:10:12.119Z,5.40
2019-03-09T15:11:13.259Z,5.05
2019-03-09T15:12:14.713Z,5.55
2019-03-09T15:13:16.136Z,5.58
2019-03-09T15:14:17.284Z,5.50
2019-03-09T15:15:19.362Z,5.70
2019-03-09T15:16:20.521Z,5.90
2019-03-09T15:17:21.672Z,5.40
2019-03-09T15:18:23.571Z,5.80
2019-03-09T15:19:25.041Z,5.72
2019-03-09T15:20:26.254Z,5.78
2019-03-09T15:21:27.760Z,5.42
2019-03-09T15:22:29.207Z,5.58
2019-03-09T15:23:30.381Z,6.15
2019-03-09T15:24:31.521Z,5.55
2019-03-09T15:25:32.668Z,5.58
2019-03-09T15:26:34.142Z,6.05
2019-03-09T15:27:35.319Z,6.35
2019-03-09T15:28:36.541Z,5.33
2019-03-09T15:29:37.946Z,5.62
2019-03-09T15:30:39.272Z,4.72
2019-03-09T15:31:40.425Z,4.97
2019-03-09T15:32:41.860Z,5.87
2019-03-09T15:33:43.402Z,5.97
2019-03-09T15:34:44.892Z,6.33
2019-03-09T15:35:46.403Z,5.83
2019-03-09T15:36:47.566Z,5.05
2019-03-09T15:37:48.718Z,5.70
2019-03-09T15:38:49.867Z,4.95
2019-03-09T15:39:51.009Z,6.33
2019-03-09T15:40:52.308Z,5.60
2019-03-09T15:41:53.545Z,5.25
2019-03-09T15:42:54.797Z,8.30
2019-03-09T15:43:56.006Z,5.85
2019-03-09T15:44:57.149Z,5.08
2019-03-09T15:45:58.437Z,4.37
2019-03-09T15:46:59.579Z,4.58
2019-03-09T15:48:01.000Z,5.25
2019-03-09T15:49:02.234Z,4.55